Time;durP1;ratioP1;P1;durP2;ratioP2;P2;SDS_P1;SDS_P2;PMS_P1;PMS_P2;Temp;Humidity;BMP_temperature;BMP_pressure;BME280_temperature;BME280_humidity;BME280_pressure;Samples;Min_cycle;Max_cycle;Signal;HPM_P1;HPM_P2
2023/03/20 00:01:21;;;;;;;61.47;31.42;;;;;;;;;;5078165;28;20289;-43
2023/03/20 00:03:49;;;;;;;58.37;27.63;;;;;;;;;;5078362;28;20215;-44
2023/03/20 00:06:18;;;;;;;46.70;27.10;;;;;;;;;;5078142;28;20207;-43
2023/03/20 00:08:46;;;;;;;52.47;30.80;;;;;;;;;;5078000;28;20227;-43
2023/03/20 00:11:29;;;;;;;55.53;31.07;;;;;;;;;;5078040;28;20203;-43
2023/03/20 00:13:58;;;;;;;49.47;29.73;;;;;;;;;;5078098;28;20268;-43
2023/03/20 00:16:30;;;;;;;46.63;27.00;;;;;;;;;;5076978;28;20665;-43
2023/03/20 00:18:58;;;;;;;49.77;27.23;;;;;;;;;;5076957;28;20208;-43
2023/03/20 00:21:26;;;;;;;49.88;29.23;;;;;;;;;;5078496;28;20264;-43
2023/03/20 00:23:54;;;;;;;43.10;25.57;;;;;;;;;;5078000;28;20230;-43
2023/03/20 00:26:25;;;;;;;43.07;24.43;;;;;;;;;;5078138;28;20200;-43
2023/03/20 00:28:52;;;;;;;40.53;23.03;;;;;;;;;;5077356;28;20230;-43
2023/03/20 00:31:29;;;;;;;36.63;22.43;;;;;;;;;;5077293;28;20200;-43
2023/03/20 00:33:59;;;;;;;36.55;22.35;;;;;;;;;;5076609;28;20203;-43
2023/03/20 00:36:27;;;;;;;36.43;21.07;;;;;;;;;;5076590;28;20590;-43
2023/03/20 00:38:58;;;;;;;38.13;22.50;;;;;;;;;;5076804;28;20203;-43
2023/03/20 00:41:37;;;;;;;40.00;20.93;;;;;;;;;;5077591;28;20187;-43
2023/03/20 00:44:04;;;;;;;33.30;21.50;;;;;;;;;;5078310;28;20282;-43
2023/03/20 00:46:36;;;;;;;37.23;21.47;;;;;;;;;;5077423;28;20191;-43
2023/03/20 00:49:05;;;;;;;35.10;21.77;;;;;;;;;;5076792;28;20207;-43
2023/03/20 00:51:32;;;;;;;36.63;21.07;;;;;;;;;;5076920;28;20710;-43
2023/03/20 00:54:00;;;;;;;35.23;21.37;;;;;;;;;;5076439;28;20199;-43
2023/03/20 00:56:33;;;;;;;34.63;20.83;;;;;;;;;;5076264;28;20203;-43
2023/03/20 00:59:01;;;;;;;37.10;21.33;;;;;;;;;;5076117;28;20656;-43
2023/03/20 01:01:29;;;;;;;36.57;21.70;;;;;;;;;;5059486;28;20235;-43
2023/03/20 01:03:57;;;;;;;40.73;23.33;;;;;;;;;;5059823;28;20661;-43
2023/03/20 01:06:24;;;;;;;84.93;37.97;;;;;;;;;;5076897;28;20585;-43
2023/03/20 01:08:51;;;;;;;144.83;50.87;;;;;;;;;;5075851;28;20234;-44
2023/03/20 01:11:21;;;;;;;277.73;70.87;;;;;;;;;;5077225;28;20203;-43
2023/03/20 01:13:48;;;;;;;292.60;70.83;;;;;;;;;;5076048;28;20200;-43
2023/03/20 01:16:21;;;;;;;242.63;62.47;;;;;;;;;;5075645;28;20210;-45
2023/03/20 01:18:49;;;;;;;117.27;38.47;;;;;;;;;;5076561;28;20202;-44
2023/03/20 01:21:17;;;;;;;131.00;41.70;;;;;;;;;;5075854;28;20583;-44
2023/03/20 01:23:44;;;;;;;559.35;202.13;;;;;;;;;;5075802;28;20204;-43
2023/03/20 01:26:33;;;;;;;507.37;182.20;;;;;;;;;;5075756;28;20214;-43
2023/03/20 01:29:00;;;;;;;58.60;31.40;;;;;;;;;;5076661;28;20227;-43
2023/03/20 01:31:28;;;;;;;104.17;44.70;;;;;;;;;;5075464;28;20211;-43
2023/03/20 01:33:56;;;;;;;290.87;109.43;;;;;;;;;;5075273;28;20290;-43
2023/03/20 01:36:23;;;;;;;244.97;96.73;;;;;;;;;;5076396;28;20214;-43
2023/03/20 01:38:56;;;;;;;99.17;42.90;;;;;;;;;;5076563;28;20214;-43
2023/03/20 01:41:25;;;;;;;144.33;57.43;;;;;;;;;;5059175;28;20195;-44
2023/03/20 01:43:52;;;;;;;194.00;61.70;;;;;;;;;;5075348;28;20229;-43
2023/03/20 01:46:25;;;;;;;177.02;53.08;;;;;;;;;;5075246;28;20191;-43
2023/03/20 01:49:00;;;;;;;196.95;53.90;;;;;;;;;;5075968;28;20225;-43
2023/03/20 01:51:31;;;;;;;130.97;43.40;;;;;;;;;;5075533;28;20546;-43
2023/03/20 01:54:22;;;;;;;130.93;47.77;;;;;;;;;;5089226;28;20205;-43
2023/03/20 01:57:19;;;;;;;136.53;48.03;;;;;;;;;;5095445;28;20209;-43
2023/03/20 01:59:54;;;;;;;86.77;36.23;;;;;;;;;;5095471;28;20255;-48
2023/03/20 02:02:25;;;;;;;63.13;32.43;;;;;;;;;;5078797;28;20275;-43
2023/03/20 02:04:57;;;;;;;78.17;33.97;;;;;;;;;;5078329;28;20198;-44
2023/03/20 02:07:25;;;;;;;65.77;32.17;;;;;;;;;;5095673;28;20199;-43
2023/03/20 02:10:12;;;;;;;60.07;31.00;;;;;;;;;;5094959;28;20221;-43
2023/03/20 02:12:56;;;;;;;58.53;31.03;;;;;;;;;;5080894;28;20223;-43
2023/03/20 02:15:31;;;;;;;175.23;67.60;;;;;;;;;;5094911;28;20293;-43
2023/03/20 02:18:10;;;;;;;187.30;67.07;;;;;;;;;;5080568;28;20277;-43
2023/03/20 02:20:53;;;;;;;108.00;41.50;;;;;;;;;;5095988;28;20203;-44
2023/03/20 02:23:50;;;;;;;106.67;39.93;;;;;;;;;;5095066;28;20194;-43
2023/03/20 02:26:43;;;;;;;574.63;228.17;;;;;;;;;;5095259;28;20206;-43
2023/03/20 02:29:24;;;;;;;300.83;110.47;;;;;;;;;;5094960;28;20222;-45
2023/03/20 02:31:58;;;;;;;112.67;47.60;;;;;;;;;;5094928;28;20206;-43
2023/03/20 02:35:04;;;;;;;57.47;29.27;;;;;;;;;;5094565;28;20198;-43
2023/03/20 02:37:37;;;;;;;64.47;31.47;;;;;;;;;;5054870;28;20213;-43
2023/03/20 02:40:11;;;;;;;112.43;44.00;;;;;;;;;;5094622;28;20524;-43
2023/03/20 02:42:58;;;;;;;154.03;47.03;;;;;;;;;;5094544;28;20643;-43
2023/03/20 02:45:39;;;;;;;227.13;58.90;;;;;;;;;;5078568;28;20206;-45
2023/03/20 02:48:40;;;;;;;250.97;78.93;;;;;;;;;;5078452;28;20755;-43
2023/03/20 02:51:11;;;;;;;130.43;48.87;;;;;;;;;;5094584;28;20252;-43
2023/03/20 02:54:04;;;;;;;154.57;47.60;;;;;;;;;;5077624;28;20632;-43
2023/03/20 02:56:47;;;;;;;243.57;62.10;;;;;;;;;;5094309;28;20210;-43
2023/03/20 02:59:39;;;;;;;221.47;59.27;;;;;;;;;;5094147;28;20226;-43
2023/03/20 03:02:09;;;;;;;228.47;60.57;;;;;;;;;;5040175;28;20245;-43
2023/03/20 03:04:39;;;;;;;263.30;69.40;;;;;;;;;;5094232;28;20217;-43
2023/03/20 03:07:08;;;;;;;206.43;60.80;;;;;;;;;;5095124;28;20207;-45
2023/03/20 03:10:03;;;;;;;267.50;86.30;;;;;;;;;;5077214;28;20680;-43
2023/03/20 03:12:40;;;;;;;151.60;52.40;;;;;;;;;;5075054;28;20222;-43
2023/03/20 03:15:47;;;;;;;143.37;47.33;;;;;;;;;;5077864;28;20539;-43
2023/03/20 03:18:18;;;;;;;266.23;85.40;;;;;;;;;;5016666;28;20270;-43
2023/03/20 03:20:47;;;;;;;157.30;59.43;;;;;;;;;;5016637;28;20538;-44
2023/03/20 03:23:25;;;;;;;71.33;34.17;;;;;;;;;;5016659;28;20196;-43
2023/03/20 03:25:54;;;;;;;41.40;23.57;;;;;;;;;;5016714;28;20200;-44
2023/03/20 03:28:37;;;;;;;104.10;46.57;;;;;;;;;;5016677;28;20761;-44
2023/03/20 03:31:07;;;;;;;89.43;38.20;;;;;;;;;;5032976;28;20233;-44
2023/03/20 03:33:37;;;;;;;122.07;42.07;;;;;;;;;;5016458;28;20201;-45
2023/03/20 03:36:19;;;;;;;200.10;52.50;;;;;;;;;;5016432;28;20208;-43
2023/03/20 03:39:02;;;;;;;167.40;42.27;;;;;;;;;;5016661;28;20538;-44
2023/03/20 03:41:34;;;;;;;62.93;26.50;;;;;;;;;;5017108;28;20247;-43
2023/03/20 03:44:27;;;;;;;51.73;23.90;;;;;;;;;;5000553;28;20212;-44
2023/03/20 03:47:10;;;;;;;108.03;35.43;;;;;;;;;;5007612;28;20211;-43
2023/03/20 03:49:43;;;;;;;203.70;50.40;;;;;;;;;;5016340;28;20217;-43
2023/03/20 03:52:16;;;;;;;118.20;36.17;;;;;;;;;;5063705;28;20276;-43
2023/03/20 03:54:47;;;;;;;89.07;29.77;;;;;;;;;;5093936;28;20203;-44
2023/03/20 03:57:48;;;;;;;87.20;30.23;;;;;;;;;;5094277;28;20202;-43
2023/03/20 04:00:19;;;;;;;193.97;55.83;;;;;;;;;;5076994;28;20672;-43
2023/03/20 04:02:49;;;;;;;222.83;65.83;;;;;;;;;;5077048;28;20259;-44
2023/03/20 04:05:18;;;;;;;100.57;35.33;;;;;;;;;;5076934;28;20538;-44
2023/03/20 04:07:46;;;;;;;122.33;39.63;;;;;;;;;;5093119;28;20209;-44
2023/03/20 04:10:14;;;;;;;64.63;24.37;;;;;;;;;;5094005;28;20252;-43
2023/03/20 04:12:42;;;;;;;65.03;28.13;;;;;;;;;;5093518;28;20230;-45
2023/03/20 04:15:14;;;;;;;40.23;21.40;;;;;;;;;;5093511;28;20194;-43
2023/03/20 04:17:43;;;;;;;87.73;36.33;;;;;;;;;;5093170;28;20289;-43
2023/03/20 04:20:12;;;;;;;136.67;51.43;;;;;;;;;;5093345;28;20221;-43
2023/03/20 04:22:40;;;;;;;146.63;57.23;;;;;;;;;;5093817;28;20574;-43
2023/03/20 04:25:21;;;;;;;82.63;37.13;;;;;;;;;;5093375;28;20206;-43
2023/03/20 04:27:51;;;;;;;91.27;38.37;;;;;;;;;;5093068;28;20198;-48
2023/03/20 04:30:59;;;;;;;55.87;24.73;;;;;;;;;;5055442;28;20713;-43
2023/03/20 04:33:51;;;;;;;49.40;22.20;;;;;;;;;;5032700;28;20342;-43
2023/03/20 04:36:25;;;;;;;425.70;143.43;;;;;;;;;;5085429;28;20217;-46
2023/03/20 04:38:53;;;;;;;226.30;81.03;;;;;;;;;;5096727;28;20214;-44
2023/03/20 04:41:24;;;;;;;128.70;43.47;;;;;;;;;;5096371;28;20187;-43
2023/03/20 04:43:54;;;;;;;68.30;27.07;;;;;;;;;;5096572;28;20203;-43
2023/03/20 04:46:23;;;;;;;64.80;26.07;;;;;;;;;;5096516;28;20288;-43
2023/03/20 04:48:50;;;;;;;45.10;21.20;;;;;;;;;;5097199;28;20315;-43
2023/03/20 04:51:18;;;;;;;36.50;19.77;;;;;;;;;;5096349;28;20535;-45
2023/03/20 04:53:51;;;;;;;31.70;19.20;;;;;;;;;;5096228;28;20210;-43
2023/03/20 04:56:19;;;;;;;42.10;20.33;;;;;;;;;;5097226;28;20199;-45
2023/03/20 04:58:48;;;;;;;56.37;27.47;;;;;;;;;;5096140;28;20510;-44
2023/03/20 05:01:17;;;;;;;58.13;27.60;;;;;;;;;;5095959;28;20242;-44
2023/03/20 05:03:44;;;;;;;70.63;27.43;;;;;;;;;;5090729;28;20195;-44
2023/03/20 05:06:12;;;;;;;111.10;48.30;;;;;;;;;;5086902;28;20222;-44
2023/03/20 05:08:41;;;;;;;120.53;44.97;;;;;;;;;;5094879;28;20260;-47
2023/03/20 05:11:09;;;;;;;106.30;37.83;;;;;;;;;;5091874;28;20222;-44
2023/03/20 05:13:54;;;;;;;106.67;33.07;;;;;;;;;;5081063;28;20695;-44
2023/03/20 05:16:24;;;;;;;815.47;340.13;;;;;;;;;;5078853;28;20548;-43
2023/03/20 05:19:10;;;;;;;463.27;157.97;;;;;;;;;;5088419;28;20222;-43
2023/03/20 05:21:51;;;;;;;279.93;103.40;;;;;;;;;;5086124;28;20219;-44
2023/03/20 05:24:31;;;;;;;64.30;30.80;;;;;;;;;;5093129;28;20314;-45
2023/03/20 05:27:31;;;;;;;80.60;34.67;;;;;;;;;;5046222;28;20287;-45
2023/03/20 05:30:19;;;;;;;56.87;26.77;;;;;;;;;;5079665;28;20231;-44
2023/03/20 05:33:05;;;;;;;68.43;29.03;;;;;;;;;;5089058;28;20257;-44
2023/03/20 05:35:41;;;;;;;46.87;23.77;;;;;;;;;;5074280;28;20234;-48
2023/03/20 05:38:26;;;;;;;37.20;23.50;;;;;;;;;;5075842;28;20223;-45
2023/03/20 05:41:08;;;;;;;48.20;29.10;;;;;;;;;;5073654;28;20254;-49
2023/03/20 05:44:11;;;;;;;39.47;23.83;;;;;;;;;;4992987;28;20258;-44
2023/03/20 05:46:53;;;;;;;42.40;24.87;;;;;;;;;;4994542;28;20234;-44
2023/03/20 05:49:39;;;;;;;39.93;24.07;;;;;;;;;;5013232;28;20306;-44
2023/03/20 05:52:21;;;;;;;43.07;23.63;;;;;;;;;;4994748;28;20275;-46
2023/03/20 05:55:13;;;;;;;37.17;21.20;;;;;;;;;;5001638;28;20237;-50
2023/03/20 05:58:10;;;;;;;41.50;22.80;;;;;;;;;;4954407;29;20224;-45
2023/03/20 06:00:44;;;;;;;95.07;43.33;;;;;;;;;;4954909;29;20728;-45
2023/03/20 06:03:37;;;;;;;112.10;49.67;;;;;;;;;;4952540;29;20344;-46
2023/03/20 06:06:11;;;;;;;71.87;36.33;;;;;;;;;;4954840;29;20235;-45
2023/03/20 06:08:39;;;;;;;71.93;35.00;;;;;;;;;;4938834;29;20237;-51
2023/03/20 06:11:07;;;;;;;93.10;38.53;;;;;;;;;;4954664;29;20232;-45
2023/03/20 06:13:37;;;;;;;72.60;34.80;;;;;;;;;;4954798;29;20334;-49
2023/03/20 06:16:05;;;;;;;93.83;41.60;;;;;;;;;;4938503;29;20720;-44
2023/03/20 06:18:32;;;;;;;108.53;47.17;;;;;;;;;;5003916;28;20319;-44
2023/03/20 06:21:00;;;;;;;92.87;46.63;;;;;;;;;;5035412;28;21204;-44
2023/03/20 06:23:29;;;;;;;77.93;39.83;;;;;;;;;;5036090;28;20246;-44
2023/03/20 06:25:57;;;;;;;88.37;39.13;;;;;;;;;;5036010;28;20289;-48
2023/03/20 06:28:25;;;;;;;91.77;40.70;;;;;;;;;;5035282;28;20315;-44
2023/03/20 06:31:00;;;;;;;130.57;50.43;;;;;;;;;;5036334;28;20342;-44
2023/03/20 06:33:28;;;;;;;252.40;84.50;;;;;;;;;;5037590;28;20245;-44
2023/03/20 06:35:58;;;;;;;166.27;64.33;;;;;;;;;;5075181;28;20204;-44
2023/03/20 06:38:28;;;;;;;129.70;57.17;;;;;;;;;;5074422;28;20203;-44
2023/03/20 06:40:57;;;;;;;84.73;41.57;;;;;;;;;;5074424;28;20207;-44
2023/03/20 06:43:24;;;;;;;93.87;45.97;;;;;;;;;;5074390;28;20199;-44
2023/03/20 06:45:53;;;;;;;71.20;37.70;;;;;;;;;;5074349;28;20211;-46
2023/03/20 06:48:22;;;;;;;67.80;35.37;;;;;;;;;;5074063;28;20207;-44
2023/03/20 06:50:51;;;;;;;64.03;34.50;;;;;;;;;;5090578;28;20231;-44
2023/03/20 06:53:21;;;;;;;64.37;34.87;;;;;;;;;;5091261;28;20205;-44
2023/03/20 06:56:15;;;;;;;62.47;35.17;;;;;;;;;;5071891;28;20211;-44
2023/03/20 06:58:44;;;;;;;64.97;34.80;;;;;;;;;;5073950;28;20206;-45
2023/03/20 07:01:15;;;;;;;64.93;36.30;;;;;;;;;;5074045;28;20235;-44
2023/03/20 07:03:43;;;;;;;66.63;37.47;;;;;;;;;;5073917;28;20203;-44
2023/03/20 07:06:12;;;;;;;68.83;38.70;;;;;;;;;;5074591;28;20210;-44
2023/03/20 07:08:39;;;;;;;68.87;39.07;;;;;;;;;;5057326;28;20195;-46
2023/03/20 07:11:08;;;;;;;67.47;38.07;;;;;;;;;;5074032;28;20199;-45
2023/03/20 07:13:35;;;;;;;67.70;36.10;;;;;;;;;;5090575;28;20210;-44
2023/03/20 07:16:12;;;;;;;69.57;39.13;;;;;;;;;;5075236;28;20641;-44
2023/03/20 07:18:40;;;;;;;75.70;38.37;;;;;;;;;;5074008;28;20209;-45
2023/03/20 07:21:11;;;;;;;468.80;173.57;;;;;;;;;;5074243;28;20203;-45
2023/03/20 07:23:40;;;;;;;126.53;57.87;;;;;;;;;;5073881;28;20203;-44
2023/03/20 07:26:08;;;;;;;186.13;74.63;;;;;;;;;;5078993;28;20633;-46
2023/03/20 07:28:35;;;;;;;112.70;53.37;;;;;;;;;;5094095;28;20206;-44
2023/03/20 07:31:25;;;;;;;94.32;49.22;;;;;;;;;;5093948;28;20632;-45
2023/03/20 07:34:01;;;;;;;85.83;45.97;;;;;;;;;;5093882;28;20195;-44
2023/03/20 07:36:32;;;;;;;92.03;46.03;;;;;;;;;;5094017;28;20201;-44
2023/03/20 07:38:59;;;;;;;112.70;57.27;;;;;;;;;;5094142;28;20206;-44
2023/03/20 07:41:29;;;;;;;125.13;52.55;;;;;;;;;;5093931;28;20199;-44
2023/03/20 07:44:07;;;;;;;87.70;41.95;;;;;;;;;;5093594;28;20201;-44
2023/03/20 07:46:46;;;;;;;94.83;48.23;;;;;;;;;;5093558;28;20203;-44
2023/03/20 07:49:17;;;;;;;78.77;40.57;;;;;;;;;;5093850;28;20291;-44
2023/03/20 07:51:46;;;;;;;71.90;39.92;;;;;;;;;;5093627;28;20248;-44
2023/03/20 07:54:14;;;;;;;68.10;36.38;;;;;;;;;;5093538;28;20236;-44
2023/03/20 07:56:42;;;;;;;70.85;39.28;;;;;;;;;;5093455;28;20528;-44
2023/03/20 07:59:09;;;;;;;69.60;37.13;;;;;;;;;;5093825;28;20203;-44
2023/03/20 08:01:36;;;;;;;66.82;36.75;;;;;;;;;;5094813;28;20227;-44
2023/03/20 08:04:03;;;;;;;62.13;34.90;;;;;;;;;;5097709;28;20198;-44
2023/03/20 08:06:31;;;;;;;56.33;32.63;;;;;;;;;;5098193;28;20199;-43
2023/03/20 08:08:58;;;;;;;57.40;31.90;;;;;;;;;;5098179;28;20652;-44
2023/03/20 08:11:25;;;;;;;56.10;30.33;;;;;;;;;;5098110;28;20213;-44
2023/03/20 08:13:52;;;;;;;53.35;30.52;;;;;;;;;;5098289;28;20217;-44
2023/03/20 08:16:20;;;;;;;58.05;30.15;;;;;;;;;;5098031;28;20199;-44
2023/03/20 08:18:47;;;;;;;49.03;28.95;;;;;;;;;;5098027;28;20199;-44
2023/03/20 08:21:15;;;;;;;52.53;30.35;;;;;;;;;;5098459;28;20502;-44
2023/03/20 08:23:42;;;;;;;59.33;34.95;;;;;;;;;;5098265;28;20191;-44
2023/03/20 08:26:09;;;;;;;56.70;33.35;;;;;;;;;;5098131;28;20206;-44
2023/03/20 08:28:36;;;;;;;63.65;34.70;;;;;;;;;;5097712;28;20214;-45
2023/03/20 08:31:14;;;;;;;56.70;32.97;;;;;;;;;;5098045;28;20355;-44
2023/03/20 08:33:42;;;;;;;60.80;34.22;;;;;;;;;;5098080;28;20290;-44
2023/03/20 08:36:09;;;;;;;64.55;35.88;;;;;;;;;;5097973;28;20271;-44
2023/03/20 08:38:36;;;;;;;78.68;41.15;;;;;;;;;;5097869;28;20199;-44
2023/03/20 08:41:05;;;;;;;84.88;45.28;;;;;;;;;;5097540;28;20210;-44
2023/03/20 08:43:32;;;;;;;75.80;40.08;;;;;;;;;;5098148;28;20199;-45
2023/03/20 08:46:00;;;;;;;75.93;41.55;;;;;;;;;;5097593;28;20210;-45
2023/03/20 08:48:27;;;;;;;65.75;36.22;;;;;;;;;;5097516;28;20226;-44
2023/03/20 08:50:54;;;;;;;58.67;32.20;;;;;;;;;;5097591;28;20234;-45
2023/03/20 08:53:22;;;;;;;55.03;30.58;;;;;;;;;;5097576;28;20203;-45
2023/03/20 08:55:50;;;;;;;63.65;33.90;;;;;;;;;;5097228;28;20203;-44
2023/03/20 08:58:18;;;;;;;53.95;31.02;;;;;;;;;;5097237;28;20206;-45
2023/03/20 09:00:46;;;;;;;59.45;31.80;;;;;;;;;;5097541;28;20245;-44
2023/03/20 09:03:18;;;;;;;59.58;33.90;;;;;;;;;;5097251;28;20202;-44
2023/03/20 09:05:47;;;;;;;57.58;33.85;;;;;;;;;;5097281;28;20202;-44
2023/03/20 09:08:15;;;;;;;55.15;30.95;;;;;;;;;;5097285;28;20210;-44
2023/03/20 09:10:42;;;;;;;63.03;34.00;;;;;;;;;;5097264;28;20233;-44
2023/03/20 09:13:09;;;;;;;56.38;34.80;;;;;;;;;;5097263;28;20206;-44
2023/03/20 09:15:54;;;;;;;63.67;37.60;;;;;;;;;;5096355;28;20236;-44
2023/03/20 09:18:21;;;;;;;59.13;36.65;;;;;;;;;;5096794;28;20213;-45
2023/03/20 09:20:49;;;;;;;64.25;37.65;;;;;;;;;;5097047;28;20217;-44
2023/03/20 09:23:17;;;;;;;80.63;45.25;;;;;;;;;;5096696;28;20207;-44
2023/03/20 09:25:45;;;;;;;91.30;52.58;;;;;;;;;;5096948;28;20187;-44
2023/03/20 09:28:12;;;;;;;83.53;48.20;;;;;;;;;;5095853;28;20199;-45
2023/03/20 09:30:42;;;;;;;81.85;50.85;;;;;;;;;;5096131;28;20573;-44
2023/03/20 09:33:09;;;;;;;67.28;41.97;;;;;;;;;;5095666;28;20206;-44
2023/03/20 09:35:36;;;;;;;66.07;35.92;;;;;;;;;;5095822;28;20630;-45
2023/03/20 09:38:03;;;;;;;55.40;32.53;;;;;;;;;;5096355;28;20207;-44
2023/03/20 09:41:01;;;;;;;56.50;33.00;;;;;;;;;;5096719;28;20211;-44
2023/03/20 09:43:37;;;;;;;51.58;31.25;;;;;;;;;;5089024;28;20285;-44
2023/03/20 09:46:18;;;;;;;57.45;32.88;;;;;;;;;;5096374;28;20510;-44
2023/03/20 09:48:51;;;;;;;35.38;22.05;;;;;;;;;;5095896;28;20212;-44
2023/03/20 09:51:48;;;;;;;35.80;21.85;;;;;;;;;;5096514;28;20226;-44
2023/03/20 09:54:34;;;;;;;38.45;22.17;;;;;;;;;;5096070;28;20245;-44
2023/03/20 09:57:35;;;;;;;32.75;19.67;;;;;;;;;;5095294;28;20259;-44
2023/03/20 10:00:12;;;;;;;35.63;20.52;;;;;;;;;;5094989;28;20636;-44
2023/03/20 10:02:53;;;;;;;34.67;20.80;;;;;;;;;;5094961;28;20688;-44
2023/03/20 10:05:25;;;;;;;31.10;19.00;;;;;;;;;;5096704;28;20207;-44
2023/03/20 10:07:58;;;;;;;33.15;18.90;;;;;;;;;;5095898;28;20202;-44
2023/03/20 10:10:41;;;;;;;27.75;15.60;;;;;;;;;;5095843;28;20218;-45
2023/03/20 10:13:13;;;;;;;29.20;17.95;;;;;;;;;;5095793;28;20194;-44
2023/03/20 10:16:25;;;;;;;36.22;19.67;;;;;;;;;;5095434;28;20203;-44
2023/03/20 10:19:01;;;;;;;38.80;22.02;;;;;;;;;;5095730;28;20201;-44
2023/03/20 10:21:38;;;;;;;34.10;20.00;;;;;;;;;;5095975;28;20202;-44
2023/03/20 10:24:24;;;;;;;32.75;19.85;;;;;;;;;;5095053;28;20202;-44
2023/03/20 10:26:53;;;;;;;37.50;19.88;;;;;;;;;;5095561;28;20191;-44
2023/03/20 10:29:24;;;;;;;35.13;19.45;;;;;;;;;;5095548;28;20206;-44
2023/03/20 10:32:04;;;;;;;37.60;19.77;;;;;;;;;;5095783;28;20218;-44
2023/03/20 10:34:56;;;;;;;38.13;20.52;;;;;;;;;;5094875;28;20183;-44
2023/03/20 10:37:32;;;;;;;32.72;18.65;;;;;;;;;;5095626;28;20200;-44
2023/03/20 10:40:29;;;;;;;37.25;20.25;;;;;;;;;;5095807;28;20206;-45
2023/03/20 10:43:01;;;;;;;34.05;19.60;;;;;;;;;;5095567;28;20240;-44
2023/03/20 10:45:44;;;;;;;31.92;17.95;;;;;;;;;;5095472;28;20577;-44
2023/03/20 10:48:28;;;;;;;32.95;19.70;;;;;;;;;;5095066;28;20210;-44
2023/03/20 10:50:58;;;;;;;31.27;17.50;;;;;;;;;;5094600;28;20226;-46
2023/03/20 10:54:05;;;;;;;28.50;15.95;;;;;;;;;;5094870;28;20230;-44
2023/03/20 10:56:38;;;;;;;25.17;15.07;;;;;;;;;;5094534;28;20199;-45
2023/03/20 10:59:26;;;;;;;31.83;17.08;;;;;;;;;;5095450;28;20198;-45
2023/03/20 11:01:54;;;;;;;29.38;16.80;;;;;;;;;;5095140;28;20300;-44
2023/03/20 11:04:21;;;;;;;31.42;17.13;;;;;;;;;;5095087;28;20202;-44
2023/03/20 11:07:09;;;;;;;45.63;23.98;;;;;;;;;;5094977;28;20201;-45
2023/03/20 11:09:36;;;;;;;30.10;17.63;;;;;;;;;;5095204;28;20220;-44
2023/03/20 11:12:04;;;;;;;30.55;17.75;;;;;;;;;;5094860;28;20222;-44
2023/03/20 11:14:36;;;;;;;36.78;18.05;;;;;;;;;;5094837;28;20210;-44
2023/03/20 11:17:05;;;;;;;34.45;18.50;;;;;;;;;;5093802;28;20201;-44
2023/03/20 11:19:37;;;;;;;41.03;20.27;;;;;;;;;;5094684;28;20198;-44
2023/03/20 11:22:21;;;;;;;25.35;16.42;;;;;;;;;;5094774;28;20190;-45
2023/03/20 11:24:53;;;;;;;34.00;18.92;;;;;;;;;;5094065;28;20187;-46
2023/03/20 11:27:26;;;;;;;29.58;18.70;;;;;;;;;;5094554;28;20234;-44
2023/03/20 11:29:54;;;;;;;24.48;14.77;;;;;;;;;;5094732;28;20198;-45
2023/03/20 11:32:30;;;;;;;25.13;15.45;;;;;;;;;;5095549;28;20202;-44
2023/03/20 11:35:21;;;;;;;25.25;14.27;;;;;;;;;;5094608;28;20536;-45
2023/03/20 11:37:51;;;;;;;32.53;16.70;;;;;;;;;;5096176;28;20190;-44
2023/03/20 11:40:46;;;;;;;30.30;15.90;;;;;;;;;;5098962;28;20237;-44
2023/03/20 11:43:20;;;;;;;31.38;16.20;;;;;;;;;;5097399;28;20222;-44
2023/03/20 11:45:58;;;;;;;28.67;14.70;;;;;;;;;;5099066;28;20221;-44
2023/03/20 11:48:36;;;;;;;30.25;18.20;;;;;;;;;;5098653;28;20584;-44
2023/03/20 11:51:04;;;;;;;58.78;35.70;;;;;;;;;;5098544;28;20228;-44
2023/03/20 11:53:38;;;;;;;31.50;17.50;;;;;;;;;;5098748;28;20194;-44
2023/03/20 11:56:27;;;;;;;26.27;15.40;;;;;;;;;;5097651;28;20613;-44
2023/03/20 11:58:57;;;;;;;28.80;16.75;;;;;;;;;;5097457;28;20199;-45
2023/03/20 12:01:26;;;;;;;28.30;16.60;;;;;;;;;;5098642;28;20254;-44
2023/03/20 12:03:56;;;;;;;21.52;12.43;;;;;;;;;;5098536;28;20199;-44
2023/03/20 12:06:26;;;;;;;23.50;12.73;;;;;;;;;;5098390;28;20256;-44
2023/03/20 12:09:00;;;;;;;25.92;13.43;;;;;;;;;;5098388;28;20210;-44
2023/03/20 12:11:40;;;;;;;19.73;11.93;;;;;;;;;;5098390;28;20336;-44
2023/03/20 12:14:16;;;;;;;29.40;15.00;;;;;;;;;;5098157;28;20203;-44
2023/03/20 12:16:45;;;;;;;24.95;13.07;;;;;;;;;;5097587;28;20209;-44
2023/03/20 12:19:17;;;;;;;21.77;12.43;;;;;;;;;;5097449;28;20209;-44
2023/03/20 12:21:48;;;;;;;20.42;12.73;;;;;;;;;;5097454;28;20194;-44
2023/03/20 12:24:24;;;;;;;28.02;13.75;;;;;;;;;;5098185;28;20213;-44
2023/03/20 12:27:11;;;;;;;25.83;13.07;;;;;;;;;;5097846;28;20202;-44
2023/03/20 12:29:46;;;;;;;26.80;13.35;;;;;;;;;;5097997;28;20256;-49
2023/03/20 12:32:30;;;;;;;30.02;14.45;;;;;;;;;;5097924;28;20222;-44
2023/03/20 12:34:58;;;;;;;20.70;12.82;;;;;;;;;;5098521;28;20229;-44
2023/03/20 12:37:26;;;;;;;24.50;13.50;;;;;;;;;;5096834;28;20505;-44
2023/03/20 12:39:56;;;;;;;22.83;13.38;;;;;;;;;;5097912;28;20198;-44
2023/03/20 12:42:26;;;;;;;22.85;13.73;;;;;;;;;;5096927;28;20217;-44
2023/03/20 12:45:17;;;;;;;23.08;13.65;;;;;;;;;;5097455;28;20210;-45
2023/03/20 12:48:02;;;;;;;31.25;15.18;;;;;;;;;;5097453;28;20271;-44
2023/03/20 12:50:38;;;;;;;63.58;31.65;;;;;;;;;;5096130;28;20218;-44
2023/03/20 12:53:25;;;;;;;73.25;37.17;;;;;;;;;;5096450;28;20198;-44
2023/03/20 12:56:11;;;;;;;29.42;16.27;;;;;;;;;;5097935;28;20187;-42
2023/03/20 12:58:49;;;;;;;23.17;14.45;;;;;;;;;;5097236;28;20207;-43
2023/03/20 13:01:35;;;;;;;23.20;13.57;;;;;;;;;;5096438;28;20238;-44
2023/03/20 13:04:23;;;;;;;24.35;15.02;;;;;;;;;;5097137;28;20633;-46
2023/03/20 13:06:57;;;;;;;24.55;14.85;;;;;;;;;;5097394;28;20187;-44
2023/03/20 13:09:50;;;;;;;23.55;15.15;;;;;;;;;;5097071;28;20178;-44
2023/03/20 13:12:42;;;;;;;24.92;14.45;;;;;;;;;;5092724;28;20284;-44
2023/03/20 13:15:34;;;;;;;29.02;17.17;;;;;;;;;;5095455;28;20293;-47
2023/03/20 13:18:07;;;;;;;34.20;18.85;;;;;;;;;;5094845;28;20587;-45
2023/03/20 13:20:46;;;;;;;30.98;18.15;;;;;;;;;;5083186;28;20238;-42
2023/03/20 13:23:38;;;;;;;29.13;16.92;;;;;;;;;;5084609;28;20230;-43
2023/03/20 13:26:16;;;;;;;30.75;18.08;;;;;;;;;;5084998;28;20223;-43
2023/03/20 13:29:08;;;;;;;31.13;18.40;;;;;;;;;;5096038;28;20226;-41
2023/03/20 13:31:58;;;;;;;30.48;18.33;;;;;;;;;;5096130;28;20270;-42
2023/03/20 13:35:10;;;;;;;55.85;29.05;;;;;;;;;;5094985;28;20284;-42
2023/03/20 13:37:44;;;;;;;35.00;20.50;;;;;;;;;;5093929;28;20219;-42
2023/03/20 13:40:11;;;;;;;31.35;19.00;;;;;;;;;;5095163;28;20226;-42
2023/03/20 13:43:05;;;;;;;39.25;21.15;;;;;;;;;;5095841;28;20231;-43
2023/03/20 13:45:37;;;;;;;36.53;19.38;;;;;;;;;;5095738;28;20222;-43
2023/03/20 13:48:29;;;;;;;34.53;19.33;;;;;;;;;;5095650;28;20222;-44
2023/03/20 13:51:09;;;;;;;32.05;19.38;;;;;;;;;;5083573;28;20295;-44
2023/03/20 13:54:07;;;;;;;104.78;46.80;;;;;;;;;;5094444;28;20703;-44
2023/03/20 13:56:42;;;;;;;30.80;17.80;;;;;;;;;;5080450;28;20226;-45
2023/03/20 13:59:27;;;;;;;33.40;19.10;;;;;;;;;;5074448;28;20341;-47
2023/03/20 14:01:58;;;;;;;32.55;18.75;;;;;;;;;;5073311;28;20230;-45
2023/03/20 14:04:26;;;;;;;29.60;17.15;;;;;;;;;;5090804;28;20225;-47
2023/03/20 14:06:56;;;;;;;31.20;17.58;;;;;;;;;;5093915;28;20219;-49
2023/03/20 14:09:36;;;;;;;35.30;19.60;;;;;;;;;;5092794;28;20226;-48
2023/03/20 14:12:09;;;;;;;32.88;17.60;;;;;;;;;;5092600;28;20238;-46
2023/03/20 14:14:42;;;;;;;32.05;18.67;;;;;;;;;;5093451;28;20229;-49
2023/03/20 14:17:31;;;;;;;30.25;17.83;;;;;;;;;;5093462;28;20623;-46
2023/03/20 14:20:11;;;;;;;27.75;17.15;;;;;;;;;;5092519;28;20612;-56
2023/03/20 14:22:43;;;;;;;32.17;17.45;;;;;;;;;;5092788;28;20234;-44
2023/03/20 14:25:20;;;;;;;32.80;18.30;;;;;;;;;;5094595;28;20309;-48
2023/03/20 14:28:20;;;;;;;28.23;17.70;;;;;;;;;;5094445;28;20237;-46
2023/03/20 14:30:50;;;;;;;25.75;15.65;;;;;;;;;;5094798;28;20226;-44
2023/03/20 14:33:17;;;;;;;39.22;21.25;;;;;;;;;;5093978;28;20222;-45
2023/03/20 14:35:51;;;;;;;31.10;18.48;;;;;;;;;;5094667;28;20314;-45
2023/03/20 14:38:19;;;;;;;31.38;17.83;;;;;;;;;;5093787;28;20580;-50
2023/03/20 14:40:52;;;;;;;30.42;17.15;;;;;;;;;;5085648;28;20223;-45
2023/03/20 14:43:49;;;;;;;31.83;17.92;;;;;;;;;;5091752;28;20226;-46
2023/03/20 14:46:18;;;;;;;30.00;18.13;;;;;;;;;;5086745;28;20230;-46
2023/03/20 14:48:49;;;;;;;32.25;18.92;;;;;;;;;;5085226;28;20226;-45
2023/03/20 14:51:22;;;;;;;41.42;22.05;;;;;;;;;;5093976;28;20234;-46
2023/03/20 14:54:12;;;;;;;57.58;26.77;;;;;;;;;;5083410;28;20215;-45
2023/03/20 14:56:39;;;;;;;35.15;18.85;;;;;;;;;;5092238;28;20222;-44
2023/03/20 14:59:09;;;;;;;30.38;17.98;;;;;;;;;;5093449;28;20229;-48
2023/03/20 15:01:36;;;;;;;36.22;19.63;;;;;;;;;;5082932;28;20222;-45